Time;durP1;ratioP1;P1;durP2;ratioP2;P2;SDS_P1;SDS_P2;PMS_P1;PMS_P2;Temp;Humidity;BMP_temperature;BMP_pressure;BME280_temperature;BME280_humidity;BME280_pressure;Samples;Min_cycle;Max_cycle;Signal;HPM_P1;HPM_P2
2022/07/09 00:01:07;;;;;;;5.57;4.30;;;;;;;17.14;55.11;99989.69;5146405;27;20050;-70
2022/07/09 00:03:34;;;;;;;6.82;4.40;;;;;;;15.04;55.43;99650.66;5146170;27;20054;-70
2022/07/09 00:06:02;;;;;;;5.25;3.88;;;;;;;17.09;55.09;100003.41;5146250;27;20310;-70
2022/07/09 00:08:30;;;;;;;6.68;3.35;;;;;;;17.05;55.55;100001.91;5146161;27;20055;-70
2022/07/09 00:10:58;;;;;;;4.95;3.15;;;;;;;17.10;54.98;99996.22;5145886;27;20059;-70
2022/07/09 00:13:26;;;;;;;4.50;3.47;;;;;;;17.11;55.30;99997.94;5146647;27;20252;-70
2022/07/09 00:15:53;;;;;;;5.45;3.70;;;;;;;16.95;55.17;99987.47;5146223;27;20310;-70
2022/07/09 00:18:20;;;;;;;4.07;3.03;;;;;;;16.94;55.14;99970.56;5146156;27;20051;-70
2022/07/09 00:20:48;;;;;;;5.57;3.08;;;;;;;17.12;54.67;100003.19;5146209;28;20051;-70
2022/07/09 00:23:15;;;;;;;6.78;3.33;;;;;;;17.10;55.05;99990.88;5145667;28;20233;-70
2022/07/09 00:25:42;;;;;;;4.93;3.33;;;;;;;17.10;54.79;99994.41;5146398;27;20055;-72
2022/07/09 00:28:11;;;;;;;4.65;2.63;;;;;;;17.08;54.81;99979.41;5146014;27;20108;-70
2022/07/09 00:30:38;;;;;;;4.03;2.63;;;;;;;17.10;55.02;99991.72;5146211;28;20099;-70
2022/07/09 00:33:05;;;;;;;4.32;2.80;;;;;;;17.09;55.12;99991.84;5146067;27;20059;-70
2022/07/09 00:35:33;;;;;;;4.07;2.65;;;;;;;17.11;55.08;99984.56;5146343;27;20055;-70
2022/07/09 00:38:00;;;;;;;5.05;3.00;;;;;;;17.12;55.34;99984.44;5146007;27;20051;-70
2022/07/09 00:40:27;;;;;;;4.82;2.78;;;;;;;17.11;55.07;99977.38;5145760;28;20175;-70
2022/07/09 00:42:54;;;;;;;4.32;3.13;;;;;;;17.13;55.26;99979.94;5146193;27;20055;-70
2022/07/09 00:45:23;;;;;;;7.03;2.97;;;;;;;17.17;55.14;99971.56;5144878;28;20063;-71
2022/07/09 00:47:50;;;;;;;4.10;2.67;;;;;;;17.15;54.79;99980.69;5144798;28;20088;-71
2022/07/09 00:50:20;;;;;;;3.63;2.58;;;;;;;17.13;55.08;99986.16;5145959;28;20055;-70
2022/07/09 00:52:49;;;;;;;4.30;2.83;;;;;;;17.11;55.33;99974.69;5145125;28;20043;-70
2022/07/09 00:55:16;;;;;;;3.60;2.40;;;;;;;17.00;55.29;99959.41;5145583;27;20104;-70
2022/07/09 00:57:44;;;;;;;4.65;2.60;;;;;;;17.11;54.96;99974.69;5146055;27;20310;-71
2022/07/09 01:00:13;;;;;;;5.63;2.50;;;;;;;17.11;55.31;99971.16;5146087;27;20100;-71
2022/07/09 01:02:42;;;;;;;4.28;2.60;;;;;;;17.12;55.12;99972.88;5146030;27;20076;-70
2022/07/09 01:05:09;;;;;;;4.15;2.47;;;;;;;16.98;55.49;99945.28;5146100;27;20109;-70
2022/07/09 01:07:37;;;;;;;9.90;3.30;;;;;;;17.09;55.41;99959.72;5145716;27;20069;-70
2022/07/09 01:10:05;;;;;;;5.13;2.40;;;;;;;17.00;55.64;99962.09;5145708;27;20055;-70
2022/07/09 01:12:33;;;;;;;4.90;2.60;;;;;;;16.93;55.33;99946.56;5145521;27;20063;-70
2022/07/09 01:15:01;;;;;;;4.88;2.42;;;;;;;17.00;55.22;99964.75;5145762;27;20054;-71
2022/07/09 01:17:28;;;;;;;4.18;2.53;;;;;;;17.00;55.65;99959.41;5145279;27;20111;-70
2022/07/09 01:19:56;;;;;;;3.70;2.72;;;;;;;16.88;55.58;99925.50;5148264;27;20042;-70
2022/07/09 01:22:25;;;;;;;6.25;2.67;;;;;;;16.48;55.43;99865.91;5149458;27;20099;-70
2022/07/09 01:24:54;;;;;;;4.70;2.40;;;;;;;16.99;55.05;99956.84;5150173;27;20047;-70
2022/07/09 01:27:22;;;;;;;5.15;2.80;;;;;;;16.85;55.72;99952.47;5149609;27;20047;-70
2022/07/09 01:29:49;;;;;;;4.97;2.90;;;;;;;16.93;55.19;99962.63;5149125;27;20100;-71
2022/07/09 01:32:17;;;;;;;4.13;2.70;;;;;;;15.46;55.76;99718.06;5149270;27;20058;-70
2022/07/09 01:34:44;;;;;;;4.75;2.80;;;;;;;16.85;55.51;99952.47;5149306;27;20119;-70
2022/07/09 01:37:11;;;;;;;3.95;2.35;;;;;;;14.17;55.37;99495.66;5149184;27;20108;-70
2022/07/09 01:39:49;;;;;;;5.32;2.53;;;;;;;16.84;55.56;99936.53;5149124;27;20319;-70
2022/07/09 01:42:17;;;;;;;4.05;2.60;;;;;;;16.56;55.56;99897.47;5149030;27;20055;-70
2022/07/09 01:44:45;;;;;;;3.88;2.55;;;;;;;16.34;55.66;99864.22;5149060;27;20055;-70
2022/07/09 01:47:14;;;;;;;3.63;2.45;;;;;;;16.88;55.30;99938.88;5148838;27;20195;-70
2022/07/09 01:49:42;;;;;;;3.35;2.13;;;;;;;16.84;55.71;99932.03;5148944;27;20051;-70
2022/07/09 01:52:09;;;;;;;3.63;2.33;;;;;;;16.71;55.79;99906.25;5148954;27;20051;-71
2022/07/09 01:54:37;;;;;;;4.65;2.45;;;;;;;16.69;55.56;99906.38;5148918;27;20103;-71
2022/07/09 01:57:06;;;;;;;4.30;2.78;;;;;;;16.84;55.28;99929.34;5148557;27;20104;-70
2022/07/09 01:59:33;;;;;;;3.88;2.63;;;;;;;16.87;55.66;99929.13;5148430;27;20096;-71
2022/07/09 02:02:01;;;;;;;3.47;2.70;;;;;;;16.83;55.39;99924.97;5148524;27;20055;-71
2022/07/09 02:04:28;;;;;;;4.57;2.47;;;;;;;16.56;55.50;99894.78;5148740;27;20115;-71
2022/07/09 02:06:57;;;;;;;3.67;2.50;;;;;;;16.72;55.46;99932.06;5148692;27;20108;-71
2022/07/09 02:09:24;;;;;;;4.05;2.53;;;;;;;16.62;55.84;99910.41;5148674;27;20359;-71
2022/07/09 02:11:51;;;;;;;4.75;2.80;;;;;;;16.77;55.66;99938.78;5148239;27;20053;-71
2022/07/09 02:14:20;;;;;;;3.70;2.13;;;;;;;16.81;55.71;99926.03;5148665;27;20051;-71
2022/07/09 02:16:47;;;;;;;4.07;2.30;;;;;;;16.75;55.52;99921.97;5148635;27;20118;-70
2022/07/09 02:19:15;;;;;;;4.18;2.40;;;;;;;16.59;55.96;99905.28;5148061;27;20051;-70
2022/07/09 02:21:42;;;;;;;4.20;2.28;;;;;;;16.68;56.00;99926.91;5148497;27;20055;-71
2022/07/09 02:24:10;;;;;;;4.38;1.95;;;;;;;16.70;55.92;99931.31;5148434;27;20055;-70
2022/07/09 02:26:37;;;;;;;3.47;2.20;;;;;;;16.71;55.83;99922.31;5148267;27;20081;-71
2022/07/09 02:29:05;;;;;;;7.25;2.60;;;;;;;16.68;56.00;99932.28;5148902;27;20051;-71
2022/07/09 02:31:33;;;;;;;4.68;2.53;;;;;;;16.54;55.56;99913.63;5148337;27;20111;-71
2022/07/09 02:34:01;;;;;;;4.60;2.25;;;;;;;16.62;56.11;99926.47;5147792;27;20067;-70
2022/07/09 02:36:28;;;;;;;5.80;2.25;;;;;;;16.66;55.89;99923.50;5147690;27;20051;-70
2022/07/09 02:38:55;;;;;;;6.75;2.40;;;;;;;16.54;56.21;99902.06;5147677;27;20111;-70
2022/07/09 02:41:23;;;;;;;3.30;2.45;;;;;;;16.56;56.06;99910.84;5147605;27;20055;-70
2022/07/09 02:43:50;;;;;;;4.18;2.10;;;;;;;16.71;55.99;99920.50;5148061;27;20055;-70
2022/07/09 02:46:17;;;;;;;3.65;2.33;;;;;;;16.54;55.58;99883.34;5147830;27;20104;-71
2022/07/09 02:48:46;;;;;;;6.05;2.33;;;;;;;16.72;55.87;99911.50;5147663;27;20059;-70
2022/07/09 02:51:13;;;;;;;3.35;2.42;;;;;;;16.73;55.47;99923.91;5147683;27;20249;-71
2022/07/09 02:53:40;;;;;;;4.55;2.30;;;;;;;16.73;55.92;99915.03;5147258;27;20100;-70
2022/07/09 02:56:08;;;;;;;3.80;2.55;;;;;;;16.20;55.68;99821.53;5147852;27;20059;-71
2022/07/09 02:58:35;;;;;;;9.75;2.65;;;;;;;16.80;55.77;99910.94;5147529;27;20056;-70
2022/07/09 03:01:05;;;;;;;4.82;2.30;;;;;;;16.81;55.52;99908.16;5147507;27;20326;-70
2022/07/09 03:03:35;;;;;;;4.65;2.45;;;;;;;16.83;55.59;99900.00;5147790;27;20055;-70
2022/07/09 03:06:05;;;;;;;3.60;2.13;;;;;;;16.44;55.66;99837.66;5147590;27;20257;-70
2022/07/09 03:08:32;;;;;;;3.95;2.40;;;;;;;16.78;55.56;99908.38;5147470;27;20047;-71
2022/07/09 03:11:00;;;;;;;4.72;2.25;;;;;;;16.78;55.59;99911.06;5147325;27;20059;-70
2022/07/09 03:13:27;;;;;;;3.97;2.25;;;;;;;16.77;55.37;99905.81;5146923;27;20111;-70
2022/07/09 03:15:55;;;;;;;5.57;2.30;;;;;;;16.80;55.21;99905.59;5146841;27;20203;-70
2022/07/09 03:18:22;;;;;;;4.20;2.65;;;;;;;16.84;55.13;99902.59;5146801;27;20059;-70
2022/07/09 03:20:50;;;;;;;5.05;2.30;;;;;;;16.84;55.15;99905.25;5147324;27;20112;-71
2022/07/09 03:23:19;;;;;;;4.70;2.20;;;;;;;16.73;55.20;99877.56;5147029;27;20054;-70
2022/07/09 03:25:46;;;;;;;3.95;2.17;;;;;;;16.87;54.87;99897.00;5147277;27;20080;-70
2022/07/09 03:28:14;;;;;;;5.53;2.47;;;;;;;16.45;55.11;99838.53;5147037;27;20344;-71
2022/07/09 03:30:41;;;;;;;5.78;2.58;;;;;;;16.81;55.40;99902.81;5146982;27;20055;-71
2022/07/09 03:33:08;;;;;;;7.00;2.95;;;;;;;16.82;55.50;99900.97;5146953;27;20109;-71
2022/07/09 03:35:35;;;;;;;4.38;2.35;;;;;;;16.70;55.13;99877.78;5147022;27;20055;-71
2022/07/09 03:38:03;;;;;;;4.55;3.15;;;;;;;16.82;55.21;99911.69;5146634;27;20248;-71
2022/07/09 03:40:31;;;;;;;4.80;2.65;;;;;;;16.84;55.21;99909.75;5147032;27;20355;-71
2022/07/09 03:42:59;;;;;;;4.57;2.30;;;;;;;16.85;55.27;99903.44;5146511;27;20051;-71
2022/07/09 03:45:26;;;;;;;4.78;2.47;;;;;;;16.83;55.54;99908.91;5146596;27;20356;-71
2022/07/09 03:47:53;;;;;;;6.15;2.67;;;;;;;16.79;55.51;99907.41;5146355;27;20131;-71
2022/07/09 03:50:20;;;;;;;3.70;2.15;;;;;;;16.83;55.09;99903.53;5146059;27;20322;-70
2022/07/09 03:52:48;;;;;;;3.65;2.70;;;;;;;16.85;55.32;99908.78;5146357;27;20054;-70
2022/07/09 03:55:15;;;;;;;4.35;2.45;;;;;;;16.85;55.35;99898.09;5146388;27;20080;-70
2022/07/09 03:57:44;;;;;;;6.88;2.58;;;;;;;16.82;55.38;99906.34;5146600;27;20055;-70
2022/07/09 04:00:12;;;;;;;5.45;2.20;;;;;;;16.84;55.46;99904.41;5146254;27;20104;-70
2022/07/09 04:02:39;;;;;;;5.13;2.03;;;;;;;16.72;55.00;99881.19;5146313;27;20123;-70
2022/07/09 04:05:08;;;;;;;7.28;2.55;;;;;;;16.86;55.04;99899.78;5146107;27;20233;-70
2022/07/09 04:07:36;;;;;;;4.10;2.35;;;;;;;16.73;55.31;99877.56;5145307;27;20063;-70
2022/07/09 04:10:03;;;;;;;4.43;2.15;;;;;;;16.82;55.57;99901.84;5146151;27;20111;-70
2022/07/09 04:12:31;;;;;;;5.60;2.60;;;;;;;16.60;55.26;99865.03;5145623;27;20055;-70
2022/07/09 04:14:59;;;;;;;3.42;2.25;;;;;;;16.92;55.41;99902.88;5146158;28;20039;-70
2022/07/09 04:17:26;;;;;;;6.22;3.10;;;;;;;16.87;55.33;99904.19;5145557;27;20100;-70
2022/07/09 04:19:54;;;;;;;6.55;4.05;;;;;;;16.92;55.25;99904.69;5145917;27;20100;-70
2022/07/09 04:22:21;;;;;;;8.25;4.95;;;;;;;16.97;55.03;99903.41;5145794;27;20192;-70
2022/07/09 04:24:48;;;;;;;7.72;5.68;;;;;;;16.99;54.89;99898.78;5146109;27;20261;-70
2022/07/09 04:27:16;;;;;;;8.82;5.28;;;;;;;17.00;55.04;99905.84;5144949;28;20116;-70
2022/07/09 04:29:43;;;;;;;5.43;3.40;;;;;;;17.01;55.19;99906.72;5145728;27;20100;-70
2022/07/09 04:32:12;;;;;;;7.82;3.80;;;;;;;17.04;54.73;99905.63;5145984;27;20319;-70
2022/07/09 04:34:40;;;;;;;6.07;3.10;;;;;;;17.02;55.08;99897.72;5145906;27;20074;-70
2022/07/09 04:37:07;;;;;;;4.68;3.30;;;;;;;16.94;54.85;99874.19;5145904;28;20054;-69
2022/07/09 04:39:34;;;;;;;4.43;2.60;;;;;;;16.98;54.91;99875.66;5144916;28;20111;-70
2022/07/09 04:42:01;;;;;;;4.50;2.88;;;;;;;17.12;54.78;99911.28;5146135;27;20055;-70
2022/07/09 04:44:29;;;;;;;3.88;2.40;;;;;;;17.13;54.86;99900.47;5145948;28;20059;-70
2022/07/09 04:46:56;;;;;;;4.53;2.42;;;;;;;17.14;54.44;99906.66;5145857;27;20104;-70
2022/07/09 04:49:25;;;;;;;4.60;2.13;;;;;;;17.14;54.68;99902.16;5146007;27;20241;-69
2022/07/09 04:51:53;;;;;;;5.55;2.40;;;;;;;17.16;54.50;99912.75;5145545;27;20115;-70
2022/07/09 04:54:20;;;;;;;4.03;2.47;;;;;;;17.19;54.33;99907.19;5147078;27;20368;-70
2022/07/09 04:56:47;;;;;;;4.20;2.50;;;;;;;17.21;54.36;99906.13;5149921;27;20116;-69
2022/07/09 04:59:14;;;;;;;6.30;3.30;;;;;;;17.23;54.53;99904.19;5149389;27;20108;-69
2022/07/09 05:01:41;;;;;;;5.00;2.97;;;;;;;17.22;54.39;99907.84;5149945;27;20055;-69
2022/07/09 05:04:09;;;;;;;6.75;4.40;;;;;;;16.39;54.42;99761.38;5150018;27;20042;-69
2022/07/09 05:06:37;;;;;;;5.38;3.28;;;;;;;14.13;54.29;99385.75;5149382;27;20103;-70
2022/07/09 05:09:04;;;;;;;4.63;2.65;;;;;;;17.24;54.37;99902.38;5149883;27;20059;-69
2022/07/09 05:11:32;;;;;;;3.70;2.83;;;;;;;17.26;54.45;99906.66;5149465;27;20112;-70
2022/07/09 05:14:00;;;;;;;5.22;2.75;;;;;;;17.22;54.77;99899.81;5149681;27;20081;-69
2022/07/09 05:16:27;;;;;;;5.28;4.22;;;;;;;17.25;54.44;99904.94;5149283;27;20084;-70
2022/07/09 05:18:55;;;;;;;5.35;3.10;;;;;;;17.13;54.32;99876.34;5149181;27;20306;-69
2022/07/09 05:21:22;;;;;;;5.20;3.50;;;;;;;17.23;54.37;99892.63;5149707;27;20363;-71
2022/07/09 05:23:53;;;;;;;5.53;3.78;;;;;;;17.35;54.39;99904.25;5149330;27;20055;-71
2022/07/09 05:26:20;;;;;;;4.68;3.38;;;;;;;17.32;54.44;99905.34;5153889;27;20063;-70
2022/07/09 05:28:52;;;;;;;3.72;2.45;;;;;;;17.35;54.65;99907.78;5155974;27;20084;-71
2022/07/09 05:31:20;;;;;;;6.30;2.72;;;;;;;17.38;54.41;99906.72;5155508;27;20104;-70
2022/07/09 05:33:47;;;;;;;4.13;2.63;;;;;;;17.33;54.47;99911.56;5153916;27;20063;-70
2022/07/09 05:36:17;;;;;;;5.13;2.55;;;;;;;17.34;54.26;99902.53;5149702;27;20245;-70
2022/07/09 05:38:45;;;;;;;4.68;2.42;;;;;;;17.36;54.46;99898.78;5149592;27;20107;-71
2022/07/09 05:41:15;;;;;;;3.38;2.03;;;;;;;17.43;54.24;99899.19;5149155;27;20063;-70
2022/07/09 05:43:42;;;;;;;3.80;2.40;;;;;;;17.48;54.34;99897.00;5149000;27;20126;-70
2022/07/09 05:46:10;;;;;;;3.40;2.00;;;;;;;17.54;54.07;99899.22;5149334;27;20043;-71
2022/07/09 05:48:37;;;;;;;4.78;2.35;;;;;;;17.61;54.33;99900.50;5149264;27;20039;-71
2022/07/09 05:51:05;;;;;;;4.50;2.65;;;;;;;17.67;54.11;99896.50;5149115;27;20077;-70
2022/07/09 05:53:32;;;;;;;4.75;2.65;;;;;;;17.69;53.65;99900.78;5148276;27;20055;-71
2022/07/09 05:55:59;;;;;;;3.97;2.40;;;;;;;17.69;54.13;99892.75;5149034;27;20051;-70
2022/07/09 05:58:28;;;;;;;3.58;2.40;;;;;;;17.69;54.15;99895.41;5148987;27;20104;-70
2022/07/09 06:00:55;;;;;;;4.20;2.53;;;;;;;17.48;53.79;99857.66;5149085;27;20051;-70
2022/07/09 06:03:23;;;;;;;5.28;2.72;;;;;;;17.71;53.76;99895.31;5149355;27;20115;-70
2022/07/09 06:05:52;;;;;;;3.45;2.25;;;;;;;17.70;53.59;99888.22;5148829;27;20050;-70
2022/07/09 06:08:19;;;;;;;5.28;2.58;;;;;;;17.75;53.80;99897.63;5148723;27;20261;-70
2022/07/09 06:10:46;;;;;;;4.35;2.47;;;;;;;17.79;53.75;99892.91;5148905;27;20059;-70
2022/07/09 06:13:15;;;;;;;4.10;2.65;;;;;;;17.81;53.86;99885.59;5149218;27;20059;-70
2022/07/09 06:15:44;;;;;;;4.22;2.50;;;;;;;17.81;53.82;99893.63;5148775;27;20035;-70
2022/07/09 06:18:11;;;;;;;4.82;2.60;;;;;;;17.73;53.73;99891.53;5148261;27;20200;-70
2022/07/09 06:20:38;;;;;;;3.80;2.70;;;;;;;15.18;53.62;99448.63;5148892;27;20051;-70
2022/07/09 06:23:06;;;;;;;5.43;2.55;;;;;;;17.70;53.85;99864.09;5148629;27;20315;-70
2022/07/09 06:25:33;;;;;;;3.95;2.30;;;;;;;17.87;53.76;99885.13;5148537;27;20070;-70
2022/07/09 06:28:00;;;;;;;3.88;2.22;;;;;;;17.73;53.37;99856.69;5148385;27;20054;-71
2022/07/09 06:30:28;;;;;;;2.90;2.25;;;;;;;17.95;53.48;99882.69;5148008;27;20047;-70
2022/07/09 06:32:56;;;;;;;4.68;2.55;;;;;;;17.99;53.46;99883.31;5148026;27;20112;-70
2022/07/09 06:35:24;;;;;;;3.17;2.22;;;;;;;17.99;53.33;99881.50;5147749;27;20051;-70
2022/07/09 06:37:51;;;;;;;3.33;2.00;;;;;;;18.06;53.36;99873.81;5148297;27;20055;-70
2022/07/09 06:40:18;;;;;;;3.42;2.42;;;;;;;18.10;53.70;99881.50;5147967;27;20249;-70
2022/07/09 06:42:46;;;;;;;4.63;2.80;;;;;;;15.53;53.63;99435.34;5147959;27;20051;-71
2022/07/09 06:45:14;;;;;;;3.40;2.28;;;;;;;18.16;53.79;99874.81;5147785;27;20063;-71
2022/07/09 06:47:41;;;;;;;4.90;2.47;;;;;;;18.13;53.37;99865.19;5147069;27;20104;-71
2022/07/09 06:50:11;;;;;;;5.72;2.30;;;;;;;18.25;53.48;99864.22;5146910;27;20352;-71
2022/07/09 06:52:39;;;;;;;4.75;2.60;;;;;;;18.27;53.42;99873.00;5147904;27;20111;-71
2022/07/09 06:55:06;;;;;;;3.60;2.60;;;;;;;18.33;53.64;99866.28;5147833;27;20059;-71
2022/07/09 06:57:34;;;;;;;3.60;2.40;;;;;;;18.42;53.23;99865.56;5147960;27;20054;-70
2022/07/09 07:00:01;;;;;;;3.10;2.00;;;;;;;18.51;53.47;99872.03;5147693;27;20207;-71
2022/07/09 07:02:29;;;;;;;5.55;3.15;;;;;;;18.59;52.89;99864.25;5147565;27;20099;-71
2022/07/09 07:04:56;;;;;;;5.15;2.60;;;;;;;18.68;53.17;99858.13;5147226;27;20055;-71
2022/07/09 07:07:24;;;;;;;4.15;2.33;;;;;;;18.77;52.99;99854.69;5147676;27;20221;-71
2022/07/09 07:09:52;;;;;;;4.65;2.17;;;;;;;18.74;52.89;99838.84;5147715;27;20051;-71
2022/07/09 07:12:19;;;;;;;3.33;2.20;;;;;;;18.82;52.24;99841.75;5147100;27;20369;-71
2022/07/09 07:14:46;;;;;;;4.35;2.20;;;;;;;19.01;52.14;99864.41;5147391;27;20084;-71
2022/07/09 07:17:14;;;;;;;5.63;2.58;;;;;;;19.07;51.96;99859.41;5146836;27;20063;-71
2022/07/09 07:19:41;;;;;;;5.10;2.75;;;;;;;19.28;52.33;99866.66;5146934;27;20058;-71
2022/07/09 07:22:08;;;;;;;5.63;2.78;;;;;;;19.58;51.41;99869.50;5147179;27;20104;-71
2022/07/09 07:24:37;;;;;;;5.28;2.55;;;;;;;19.71;50.73;99861.25;5147258;27;20054;-71
2022/07/09 07:27:04;;;;;;;6.28;3.00;;;;;;;19.73;50.62;99864.66;5147250;27;20055;-72
2022/07/09 07:29:31;;;;;;;6.55;3.05;;;;;;;19.74;50.03;99859.16;5146959;27;20059;-71
2022/07/09 07:31:59;;;;;;;6.53;2.80;;;;;;;20.00;50.03;99858.78;5147455;27;20063;-71
2022/07/09 07:34:26;;;;;;;5.88;3.05;;;;;;;20.03;49.44;99851.31;5146954;27;20055;-71
2022/07/09 07:36:54;;;;;;;6.78;2.92;;;;;;;19.98;49.32;99861.59;5147191;27;20205;-70
2022/07/09 07:39:24;;;;;;;5.57;2.72;;;;;;;19.98;49.47;99891.19;5147303;27;20230;-70
2022/07/09 07:41:53;;;;;;;4.25;2.70;;;;;;;20.15;49.02;99862.84;5145908;27;20051;-71
2022/07/09 07:44:22;;;;;;;3.95;2.50;;;;;;;20.40;48.47;99842.75;5146768;27;20111;-71
2022/07/09 07:46:50;;;;;;;6.20;2.40;;;;;;;20.50;47.73;99839.09;5147070;27;20303;-71
2022/07/09 07:49:17;;;;;;;6.20;2.72;;;;;;;20.63;47.69;99821.84;5145871;27;20095;-70
2022/07/09 07:51:45;;;;;;;3.65;2.20;;;;;;;20.70;46.29;99826.53;5146924;27;20051;-71
2022/07/09 07:54:12;;;;;;;4.20;2.42;;;;;;;20.86;46.96;99830.56;5146867;27;20258;-71
2022/07/09 07:56:39;;;;;;;5.93;2.55;;;;;;;20.79;46.84;99844.56;5146619;27;20055;-71
2022/07/09 07:59:08;;;;;;;6.45;2.50;;;;;;;20.72;46.82;99843.41;5146775;27;20047;-71
2022/07/09 08:01:35;;;;;;;5.25;2.40;;;;;;;20.74;46.28;99844.13;5147026;27;20062;-71
2022/07/09 08:04:03;;;;;;;5.28;2.03;;;;;;;20.95;46.81;99837.81;5146561;27;20249;-70
2022/07/09 08:06:30;;;;;;;3.85;2.33;;;;;;;21.24;46.28;99838.72;5146440;27;20146;-71
2022/07/09 08:08:58;;;;;;;3.40;2.03;;;;;;;21.29;45.63;99832.91;5145553;27;20179;-71
2022/07/09 08:11:25;;;;;;;4.43;2.28;;;;;;;20.64;46.02;99707.75;5146119;27;20063;-71
2022/07/09 08:13:53;;;;;;;5.38;2.80;;;;;;;21.61;46.26;99838.00;5145968;27;20059;-71
2022/07/09 08:16:22;;;;;;;5.45;3.38;;;;;;;21.86;44.86;99829.34;5146228;27;20099;-71
2022/07/09 08:18:49;;;;;;;4.78;1.92;;;;;;;21.69;45.11;99822.81;5146402;28;20039;-71
2022/07/09 08:21:16;;;;;;;5.63;2.95;;;;;;;21.62;45.42;99826.22;5146132;27;20168;-71
2022/07/09 08:23:53;;;;;;;3.95;2.90;;;;;;;21.89;45.23;99828.19;5146280;27;20063;-73
2022/07/09 08:26:22;;;;;;;5.88;2.78;;;;;;;21.56;44.72;99725.16;5146462;27;20265;-71
2022/07/09 08:28:50;;;;;;;5.10;2.80;;;;;;;22.23;43.37;99783.50;5148346;27;20051;-70
2022/07/09 08:31:18;;;;;;;4.63;3.55;;;;;;;22.50;43.43;99814.25;5150311;27;20114;-71
2022/07/09 08:33:47;;;;;;;5.03;3.20;;;;;;;22.62;43.79;99813.06;5149451;27;20104;-71
2022/07/09 08:36:16;;;;;;;5.90;3.90;;;;;;;22.80;43.17;99805.84;5150173;27;20058;-71
2022/07/09 08:38:44;;;;;;;4.03;2.70;;;;;;;23.07;42.39;99806.81;5150448;27;20055;-71
2022/07/09 08:41:13;;;;;;;3.30;2.25;;;;;;;23.15;42.60;99799.63;5150245;27;20104;-70
2022/07/09 08:43:40;;;;;;;5.32;2.63;;;;;;;23.35;42.32;99797.66;5150136;27;20055;-70
2022/07/09 08:46:08;;;;;;;6.88;2.83;;;;;;;23.50;41.67;99806.06;5150049;27;20116;-70
2022/07/09 08:48:36;;;;;;;3.88;2.20;;;;;;;23.04;42.27;99799.84;5149603;27;20058;-70
2022/07/09 08:51:06;;;;;;;3.88;2.20;;;;;;;22.82;41.70;99771.44;5149878;27;20388;-71
2022/07/09 08:53:35;;;;;;;4.82;2.55;;;;;;;22.89;41.62;99787.88;5149754;27;20092;-70
2022/07/09 08:56:02;;;;;;;4.43;2.70;;;;;;;23.17;41.85;99799.47;5149976;27;20138;-71
2022/07/09 08:58:29;;;;;;;3.58;2.47;;;;;;;23.33;41.36;99795.09;5150134;27;20367;-71
2022/07/09 09:00:58;;;;;;;3.13;2.03;;;;;;;23.49;40.42;99791.69;5149612;27;20059;-72
2022/07/09 09:03:27;;;;;;;3.15;2.13;;;;;;;23.41;39.99;99791.63;5150103;27;20058;-71
2022/07/09 09:06:06;;;;;;;3.20;2.20;;;;;;;23.57;39.56;99791.75;5149888;27;20119;-71
2022/07/09 09:08:38;;;;;;;3.78;2.80;;;;;;;23.88;39.55;99783.19;5149705;27;20055;-71
2022/07/09 09:11:06;;;;;;;10.02;2.55;;;;;;;23.72;39.40;99783.06;5149230;27;20047;-72
2022/07/09 09:13:40;;;;;;;4.80;2.60;;;;;;;23.83;38.61;99785.50;5149865;27;20111;-71
2022/07/09 09:16:10;;;;;;;5.15;2.97;;;;;;;23.78;38.57;99764.34;5149304;27;20111;-71
2022/07/09 09:18:37;;;;;;;5.43;3.55;;;;;;;24.12;38.45;99772.53;5149508;27;20081;-70
2022/07/09 09:21:09;;;;;;;4.53;3.28;;;;;;;24.28;37.14;99753.66;5149578;27;20085;-71
2022/07/09 09:23:40;;;;;;;4.20;2.80;;;;;;;23.97;37.02;99772.28;5149670;27;20054;-71
2022/07/09 09:26:13;;;;;;;3.97;2.83;;;;;;;23.88;38.13;99765.06;5149539;27;20102;-72
2022/07/09 09:28:48;;;;;;;4.35;2.88;;;;;;;23.76;37.92;99774.47;5149976;27;20217;-71
2022/07/09 09:31:20;;;;;;;3.47;2.50;;;;;;;23.20;37.85;99759.47;5149650;27;20047;-72
2022/07/09 09:33:48;;;;;;;3.53;2.65;;;;;;;22.90;39.32;99774.22;5149195;27;20058;-72
2022/07/09 09:36:33;;;;;;;5.63;3.70;;;;;;;22.96;39.24;99768.19;5149449;27;20108;-72
2022/07/09 09:39:14;;;;;;;5.72;3.33;;;;;;;23.35;38.49;99766.03;5149097;27;20055;-71
2022/07/09 09:41:43;;;;;;;5.45;4.13;;;;;;;23.65;38.95;99751.22;5149564;27;20038;-72
2022/07/09 09:44:12;;;;;;;4.57;3.65;;;;;;;23.82;38.71;99744.06;5149877;27;20054;-71
2022/07/09 09:46:41;;;;;;;5.40;3.45;;;;;;;23.59;38.36;99721.25;5149496;27;20107;-70
2022/07/09 09:49:10;;;;;;;3.97;2.55;;;;;;;23.57;38.93;99736.78;5149125;27;20055;-72
2022/07/09 09:51:47;;;;;;;5.50;3.80;;;;;;;23.44;37.99;99720.97;5149276;27;20059;-72
2022/07/09 09:54:16;;;;;;;5.10;3.58;;;;;;;23.34;39.26;99712.13;5149389;27;20252;-72
2022/07/09 09:56:43;;;;;;;5.97;5.38;;;;;;;23.37;37.68;99744.25;5149303;27;20314;-72
2022/07/09 09:59:12;;;;;;;6.50;3.78;;;;;;;23.26;38.83;99742.66;5149184;27;20055;-72
2022/07/09 10:01:41;;;;;;;7.72;5.15;;;;;;;23.26;38.36;99734.53;5148997;27;20050;-70
2022/07/09 10:04:10;;;;;;;6.38;4.90;;;;;;;23.57;38.60;99729.53;5149149;27;20051;-71
2022/07/09 10:06:39;;;;;;;5.03;3.15;;;;;;;23.79;38.43;99720.03;5148692;27;20063;-71
2022/07/09 10:09:08;;;;;;;5.05;3.15;;;;;;;23.68;37.60;99699.50;5149044;27;20050;-72
2022/07/09 10:11:43;;;;;;;4.78;3.67;;;;;;;23.75;36.44;99694.28;5148551;27;20055;-71
2022/07/09 10:14:16;;;;;;;3.63;2.35;;;;;;;23.71;36.04;99711.84;5149396;27;20051;-71
2022/07/09 10:16:44;;;;;;;3.78;2.72;;;;;;;23.86;37.23;99687.75;5148943;27;20055;-71
2022/07/09 10:19:11;;;;;;;4.35;3.40;;;;;;;23.38;36.98;99586.38;5148589;27;20055;-71
2022/07/09 10:21:42;;;;;;;5.45;3.65;;;;;;;24.01;35.81;99667.22;5148122;27;20051;-71
2022/07/09 10:24:11;;;;;;;6.25;4.05;;;;;;;24.37;37.31;99700.34;5149106;27;20104;-71
2022/07/09 10:26:46;;;;;;;5.90;4.53;;;;;;;24.40;36.24;99675.63;5148706;27;20076;-71
2022/07/09 10:29:21;;;;;;;7.45;5.45;;;;;;;24.48;36.36;99708.16;5148629;27;20083;-71
2022/07/09 10:31:48;;;;;;;7.47;4.78;;;;;;;24.53;37.25;99692.25;5148199;27;20051;-71
2022/07/09 10:34:40;;;;;;;8.02;4.35;;;;;;;24.56;37.00;99701.94;5148459;27;20078;-72
2022/07/09 10:37:09;;;;;;;5.53;3.53;;;;;;;24.27;37.01;99667.13;5137516;27;20061;-72
2022/07/09 10:39:38;;;;;;;4.10;2.78;;;;;;;24.14;38.81;99694.69;5148085;27;20147;-72
2022/07/09 10:42:07;;;;;;;4.80;2.45;;;;;;;24.20;38.06;99698.59;5148077;27;20051;-72
2022/07/09 10:44:35;;;;;;;6.05;3.50;;;;;;;24.49;38.41;99693.63;5148160;27;20062;-71
2022/07/09 10:47:04;;;;;;;6.53;3.58;;;;;;;24.68;38.00;99687.06;5147512;27;20059;-71
2022/07/09 10:49:34;;;;;;;6.47;3.92;;;;;;;24.89;38.02;99675.75;5147547;27;20055;-71
2022/07/09 10:52:02;;;;;;;3.47;2.80;;;;;;;24.77;37.73;99658.13;5146744;27;20318;-70
2022/07/09 10:54:32;;;;;;;4.50;3.20;;;;;;;24.90;37.33;99667.44;5147315;27;20103;-71
2022/07/09 10:57:00;;;;;;;6.90;3.55;;;;;;;24.69;37.54;99629.16;5147095;27;20051;-71
2022/07/09 10:59:28;;;;;;;5.43;2.78;;;;;;;25.09;36.86;99666.28;5146172;27;20043;-71
2022/07/09 11:01:55;;;;;;;5.68;3.97;;;;;;;25.05;36.65;99653.25;5147509;27;20222;-72
2022/07/09 11:04:29;;;;;;;5.22;3.55;;;;;;;25.15;35.97;99656.63;5147515;27;20099;-71
2022/07/09 11:06:57;;;;;;;5.35;3.05;;;;;;;25.26;37.04;99650.84;5146747;27;20055;-71
2022/07/09 11:09:29;;;;;;;4.03;2.58;;;;;;;25.36;36.29;99659.69;5147092;27;20054;-70
2022/07/09 11:11:58;;;;;;;4.65;2.40;;;;;;;25.43;36.26;99643.56;5146617;27;20264;-70
2022/07/09 11:14:25;;;;;;;4.13;3.25;;;;;;;25.32;36.48;99633.03;5145937;27;20061;-71
2022/07/09 11:16:59;;;;;;;5.18;2.83;;;;;;;25.40;35.75;99660.19;5147064;27;20055;-70
2022/07/09 11:19:26;;;;;;;4.97;3.97;;;;;;;25.39;36.62;99651.22;5147756;27;20051;-71
2022/07/09 11:22:03;;;;;;;6.25;4.75;;;;;;;25.37;36.13;99644.25;5147115;27;20055;-71
2022/07/09 11:24:31;;;;;;;4.88;3.65;;;;;;;24.76;36.85;99562.41;5147198;27;20047;-71
2022/07/09 11:27:05;;;;;;;4.30;2.83;;;;;;;25.09;35.80;99606.63;5146849;27;20163;-70
2022/07/09 11:29:32;;;;;;;4.88;2.67;;;;;;;25.29;36.63;99626.09;5147112;27;20291;-71
2022/07/09 11:32:01;;;;;;;3.40;2.20;;;;;;;25.32;37.54;99624.91;5146659;27;20043;-71
2022/07/09 11:34:29;;;;;;;5.88;2.80;;;;;;;25.22;36.59;99606.97;5146445;27;20055;-71
2022/07/09 11:36:57;;;;;;;3.75;2.03;;;;;;;24.42;36.69;99507.53;5145964;27;20050;-71
2022/07/09 11:39:26;;;;;;;3.88;2.30;;;;;;;24.88;36.43;99601.72;5146111;27;20108;-71